createdAt,value
2023-01-28T00:01:32.379Z,99.20
2023-01-28T00:06:35.687Z,99.50
2023-01-28T00:11:38.066Z,99.20
2023-01-28T00:16:40.452Z,99.20
2023-01-28T00:21:43.098Z,99.40
2023-01-28T00:26:45.827Z,99.20
2023-01-28T00:31:48.709Z,99.20
2023-01-28T00:36:57.344Z,98.70
2023-01-28T00:41:59.722Z,99.00
2023-01-28T00:47:02.031Z,99.40
2023-01-28T00:52:04.540Z,98.50
2023-01-28T00:57:08.045Z,98.80
2023-01-28T01:02:13.723Z,99.00
2023-01-28T01:07:16.038Z,98.40
2023-01-28T01:12:18.375Z,98.50
2023-01-28T01:17:21.777Z,98.50
2023-01-28T01:22:24.211Z,98.80
2023-01-28T01:27:26.599Z,97.90
2023-01-28T01:32:33.238Z,98.60
2023-01-28T01:37:36.841Z,98.90
2023-01-28T01:42:39.224Z,98.60
2023-01-28T01:47:51.715Z,98.10
2023-01-28T01:52:58.925Z,98.10
2023-01-28T01:58:08.032Z,98.10
2023-01-28T02:03:11.447Z,97.30
2023-01-28T02:08:22.750Z,97.80
2023-01-28T02:13:29.870Z,98.40
2023-01-28T02:18:33.433Z,98.10
2023-01-28T02:24:15.494Z,98.20
2023-01-28T02:29:54.128Z,98.00
2023-01-28T02:35:45.794Z,97.60
2023-01-28T02:41:02.770Z,97.40
2023-01-28T02:46:44.580Z,97.60
2023-01-28T02:52:09.031Z,97.60
2023-01-28T02:57:24.013Z,97.60
2023-01-28T03:02:34.789Z,98.00
2023-01-28T03:07:39.034Z,97.70
2023-01-28T03:13:02.389Z,98.00
2023-01-28T03:18:35.720Z,97.50
2023-01-28T03:24:21.300Z,97.50
2023-01-28T03:29:45.103Z,97.80
2023-01-28T03:35:09.545Z,97.30
2023-01-28T03:40:13.544Z,97.30
2023-01-28T03:45:19.072Z,97.00
2023-01-28T03:50:22.250Z,97.50
2023-01-28T03:55:32.374Z,97.70
2023-01-28T04:00:38.033Z,97.10
2023-01-28T04:05:40.724Z,97.30
2023-01-28T04:10:44.017Z,97.00
2023-01-28T04:16:03.607Z,97.20
2023-01-28T04:21:10.839Z,96.40
2023-01-28T04:26:13.434Z,96.60
2023-01-28T04:31:16.192Z,97.00
2023-01-28T04:36:41.929Z,96.10
2023-01-28T04:42:04.702Z,96.10
2023-01-28T04:47:29.289Z,96.10
2023-01-28T04:52:54.577Z,96.20
2023-01-28T04:58:19.642Z,95.90
2023-01-28T05:03:24.642Z,96.40
2023-01-28T05:08:27.143Z,95.80
2023-01-28T05:13:29.605Z,96.00
2023-01-28T05:18:32.206Z,96.30
2023-01-28T05:23:43.407Z,96.10
2023-01-28T05:28:45.713Z,95.80
2023-01-28T05:33:48.234Z,95.60
2023-01-28T05:38:51.605Z,95.60
2023-01-28T05:43:54.567Z,95.50
2023-01-28T05:49:12.243Z,94.50
2023-01-28T05:54:33.174Z,94.80
2023-01-28T05:59:35.610Z,94.20
2023-01-28T06:04:39.170Z,94.10
2023-01-28T06:09:42.115Z,94.20
2023-01-28T06:14:45.078Z,94.10
2023-01-28T06:20:09.585Z,93.80
2023-01-28T06:25:14.202Z,93.20
2023-01-28T06:30:17.209Z,92.90
2023-01-28T06:35:19.619Z,93.00
2023-01-28T06:40:23.545Z,92.60
2023-01-28T06:45:26.428Z,92.60
2023-01-28T06:50:28.793Z,92.70
2023-01-28T06:55:31.259Z,92.80
2023-01-28T07:00:33.919Z,93.00
2023-01-28T07:05:36.231Z,92.60
2023-01-28T07:10:38.598Z,92.60
2023-01-28T07:15:41.494Z,92.30
2023-01-28T07:20:43.823Z,92.00
2023-01-28T07:25:46.212Z,92.00
2023-01-28T07:30:52.458Z,91.80
2023-01-28T07:35:55.683Z,91.60
2023-01-28T07:40:58.205Z,92.60
2023-01-28T07:46:01.999Z,91.70
2023-01-28T07:51:04.549Z,91.20
2023-01-28T07:56:07.107Z,91.50
2023-01-28T08:01:09.480Z,91.60
2023-01-28T08:06:12.140Z,91.10
2023-01-28T08:11:14.447Z,90.10
2023-01-28T08:16:16.853Z,90.00
2023-01-28T08:21:19.168Z,87.80
2023-01-28T08:26:21.540Z,86.20
2023-01-28T08:31:24.152Z,87.90
2023-01-28T08:36:26.649Z,87.70
2023-01-28T08:41:31.563Z,86.00
2023-01-28T08:46:33.941Z,85.60
2023-01-28T08:51:36.292Z,85.30
2023-01-28T08:56:39.125Z,86.50
2023-01-28T09:01:41.631Z,84.20
2023-01-28T09:06:43.997Z,84.60
2023-01-28T09:11:46.394Z,84.40
2023-01-28T09:16:48.711Z,84.00
2023-01-28T09:21:51.073Z,81.50
2023-01-28T09:26:53.383Z,82.30
2023-01-28T09:31:55.891Z,80.90
2023-01-28T09:36:58.287Z,80.60
2023-01-28T09:42:30.015Z,81.20
2023-01-28T09:47:43.061Z,79.60
2023-01-28T09:52:45.660Z,80.10
2023-01-28T09:57:52.207Z,79.80
2023-01-28T10:03:29.140Z,79.90
2023-01-28T10:08:50.570Z,79.40
2023-01-28T10:14:08.395Z,78.30
2023-01-28T10:19:20.174Z,77.90
2023-01-28T10:24:44.649Z,76.70
2023-01-28T10:29:50.009Z,78.30
2023-01-28T10:34:53.440Z,77.10
2023-01-28T10:39:59.286Z,76.80
2023-01-28T10:45:10.465Z,77.50
2023-01-28T10:50:20.580Z,78.60
2023-01-28T10:55:24.383Z,79.00
2023-01-28T11:00:30.917Z,77.10
2023-01-28T11:05:33.338Z,79.20
2023-01-28T11:10:38.290Z,81.70
2023-01-28T11:15:47.597Z,80.90
2023-01-28T11:21:02.549Z,81.90
2023-01-28T11:26:15.093Z,81.10
2023-01-28T11:31:19.160Z,82.00
2023-01-28T11:36:30.491Z,82.80
2023-01-28T11:41:38.991Z,80.50
2023-01-28T11:46:54.948Z,80.50
2023-01-28T11:52:21.821Z,80.90
2023-01-28T11:57:31.326Z,80.10
2023-01-28T12:02:51.628Z,79.40
2023-01-28T12:08:02.727Z,80.70
2023-01-28T12:13:30.362Z,80.70
2023-01-28T12:18:47.652Z,81.60
2023-01-28T12:24:10.288Z,81.20
2023-01-28T12:29:26.136Z,81.20
2023-01-28T12:34:49.166Z,83.50
2023-01-28T12:40:26.443Z,82.30
2023-01-28T12:45:40.733Z,82.70
2023-01-28T12:50:49.549Z,81.40
2023-01-28T12:56:03.366Z,80.30
2023-01-28T13:01:12.298Z,80.60
2023-01-28T13:06:22.200Z,81.40
2023-01-28T13:11:30.484Z,80.70
2023-01-28T13:16:37.888Z,80.40
2023-01-28T13:21:49.183Z,81.10
2023-01-28T13:26:56.132Z,81.00
2023-01-28T13:32:01.155Z,80.90
2023-01-28T13:37:40.834Z,80.90
2023-01-28T13:42:43.174Z,80.50
2023-01-28T13:48:14.537Z,79.80
2023-01-28T13:53:50.554Z,80.10
2023-01-28T13:59:14.046Z,78.50
2023-01-28T14:04:51.764Z,80.30
2023-01-28T14:10:01.977Z,80.00
2023-01-28T14:15:20.035Z,79.40
2023-01-28T14:20:37.845Z,78.10
2023-01-28T14:26:22.307Z,76.90
2023-01-28T14:31:38.479Z,78.00
2023-01-28T14:36:43.614Z,79.70
2023-01-28T14:41:48.034Z,80.60
2023-01-28T14:46:57.418Z,77.10
2023-01-28T14:52:36.156Z,78.10
2023-01-28T14:57:51.257Z,76.90
2023-01-28T15:02:53.715Z,78.40
2023-01-28T15:07:56.656Z,78.50
2023-01-28T15:13:08.030Z,78.10
2023-01-28T15:18:19.627Z,78.30
2023-01-28T15:23:53.673Z,78.70
2023-01-28T15:28:56.965Z,79.90
2023-01-28T15:34:19.251Z,79.40
2023-01-28T15:39:23.842Z,80.40
2023-01-28T15:44:34.589Z,80.70
2023-01-28T15:49:41.902Z,80.30
2023-01-28T15:54:51.884Z,81.20
2023-01-28T16:00:13.325Z,81.30
2023-01-28T16:05:36.655Z,81.50
2023-01-28T16:10:39.183Z,81.50
2023-01-28T16:15:47.125Z,82.60
2023-01-28T16:20:50.890Z,83.00
2023-01-28T16:26:05.255Z,82.80
2023-01-28T16:31:10.795Z,83.50
2023-01-28T16:36:15.538Z,83.60
2023-01-28T16:41:28.148Z,83.50
2023-01-28T16:46:30.500Z,84.40
2023-01-28T16:51:33.136Z,84.40
2023-01-28T16:56:45.309Z,84.20
2023-01-28T17:01:48.960Z,83.10
2023-01-28T17:06:53.108Z,83.00
2023-01-28T17:11:55.578Z,83.10
2023-01-28T17:16:57.879Z,83.00
2023-01-28T17:22:00.179Z,82.30
2023-01-28T17:27:02.479Z,82.80
2023-01-28T17:32:05.078Z,82.30
2023-01-28T17:37:07.390Z,82.90
2023-01-28T17:42:09.808Z,83.50
2023-01-28T17:47:12.084Z,83.80
2023-01-28T17:52:14.414Z,83.60
2023-01-28T17:57:17.255Z,84.30
2023-01-28T18:02:19.651Z,83.90
2023-01-28T18:07:21.960Z,84.00
2023-01-28T18:12:24.410Z,83.50
2023-01-28T18:17:29.826Z,83.80
2023-01-28T18:22:32.511Z,84.50
2023-01-28T18:27:34.885Z,84.20
2023-01-28T18:32:37.316Z,84.40
2023-01-28T18:37:40.172Z,84.20
2023-01-28T18:42:42.478Z,84.40
2023-01-28T18:47:44.752Z,84.70
2023-01-28T18:52:47.131Z,84.90
2023-01-28T18:57:49.829Z,85.40
2023-01-28T19:02:52.117Z,85.20
2023-01-28T19:07:54.815Z,86.30
2023-01-28T19:12:57.168Z,86.40
2023-01-28T19:17:59.452Z,86.70
2023-01-28T19:23:01.723Z,86.60
2023-01-28T19:28:04.250Z,87.60
2023-01-28T19:33:06.721Z,88.50
2023-01-28T19:38:09.514Z,88.10
2023-01-28T19:43:11.836Z,88.00
2023-01-28T19:48:14.140Z,89.50
2023-01-28T19:53:16.546Z,89.10
2023-01-28T19:58:19.299Z,90.10
2023-01-28T20:03:21.608Z,89.90
2023-01-28T20:08:23.885Z,90.10
2023-01-28T20:13:26.181Z,90.50
2023-01-28T20:18:28.499Z,90.30
2023-01-28T20:23:31.785Z,90.30
2023-01-28T20:28:34.023Z,90.80
2023-01-28T20:33:36.777Z,90.60
2023-01-28T20:38:41.190Z,90.80
2023-01-28T20:43:44.742Z,90.60
2023-01-28T20:48:47.881Z,91.30
2023-01-28T20:53:51.050Z,91.50
2023-01-28T20:58:59.631Z,91.80
2023-01-28T21:04:02.538Z,92.00
2023-01-28T21:09:05.549Z,92.30
2023-01-28T21:14:07.844Z,92.50
2023-01-28T21:19:10.367Z,92.80
2023-01-28T21:24:12.759Z,92.80
2023-01-28T21:29:15.164Z,92.80
2023-01-28T21:34:17.572Z,93.20
2023-01-28T21:39:19.848Z,93.10
2023-01-28T21:44:22.224Z,93.20
2023-01-28T21:49:24.532Z,93.10
2023-01-28T21:54:27.238Z,92.90
2023-01-28T21:59:30.890Z,93.30
2023-01-28T22:04:36.023Z,93.70
2023-01-28T22:09:39.199Z,94.00
2023-01-28T22:14:43.619Z,93.90
2023-01-28T22:19:48.121Z,93.90
2023-01-28T22:24:50.715Z,94.00
2023-01-28T22:29:53.854Z,93.90
2023-01-28T22:34:56.241Z,93.80
2023-01-28T22:39:58.587Z,94.00
2023-01-28T22:45:00.892Z,93.80
2023-01-28T22:50:03.386Z,93.70
2023-01-28T22:55:06.239Z,93.80
2023-01-28T23:00:13.442Z,93.80
2023-01-28T23:05:16.138Z,93.70
2023-01-28T23:10:19.025Z,93.30
2023-01-28T23:15:41.486Z,93.30
2023-01-28T23:21:02.832Z,93.50
2023-01-28T23:26:07.000Z,93.40
2023-01-28T23:31:09.562Z,93.10
2023-01-28T23:36:11.949Z,93.40
2023-01-28T23:41:14.256Z,93.80
2023-01-28T23:46:16.953Z,93.60
2023-01-28T23:51:20.516Z,94.10
2023-01-28T23:56:22.816Z,94.30
